createdAt,value
2023-05-02T00:00:29.340Z,102126.09
2023-05-02T00:02:56.305Z,102128.47
2023-05-02T00:05:23.269Z,102123.03
2023-05-02T00:07:55.153Z,102123.81
2023-05-02T00:10:21.850Z,102124.88
2023-05-02T00:12:48.488Z,102128.38
2023-05-02T00:15:15.092Z,102126.97
2023-05-02T00:17:42.446Z,102127.69
2023-05-02T00:20:10.744Z,102126.09
2023-05-02T00:22:38.142Z,102124.53
2023-05-02T00:25:05.487Z,102133.16
2023-05-02T00:27:32.602Z,102138.59
2023-05-02T00:30:00.657Z,102137.00
2023-05-02T00:32:28.241Z,102145.19
2023-05-02T00:34:54.997Z,102141.75
2023-05-02T00:37:21.695Z,102133.63
2023-05-02T00:39:48.387Z,102132.50
2023-05-02T00:42:15.070Z,102137.97
2023-05-02T00:44:41.763Z,102125.91
2023-05-02T00:47:08.448Z,102142.53
2023-05-02T00:49:35.089Z,102141.69
2023-05-02T00:52:03.433Z,102146.25
2023-05-02T00:54:31.356Z,102155.16
2023-05-02T00:56:57.946Z,102159.00
2023-05-02T00:59:25.788Z,102157.44
2023-05-02T01:02:21.761Z,102162.09
2023-05-02T01:05:05.895Z,102159.69
2023-05-02T01:07:54.487Z,102171.56
2023-05-02T01:10:34.832Z,102172.44
2023-05-02T01:13:10.894Z,102164.72
2023-05-02T01:15:39.380Z,102162.34
2023-05-02T01:18:18.641Z,102172.78
2023-05-02T01:20:48.177Z,102174.75
2023-05-02T01:23:30.920Z,102170.69
2023-05-02T01:29:16.024Z,102176.09
2023-05-02T01:31:46.121Z,102178.38
2023-05-02T01:34:12.751Z,102179.88
2023-05-02T01:36:48.757Z,102190.44
2023-05-02T01:39:20.451Z,102188.31
2023-05-02T01:41:50.813Z,102186.63
2023-05-02T01:44:20.101Z,102195.25
2023-05-02T01:46:47.528Z,102193.78
2023-05-02T01:49:14.617Z,102202.97
2023-05-02T01:51:46.107Z,102199.47
2023-05-02T01:54:14.287Z,102215.38
2023-05-02T01:56:43.478Z,102220.19
2023-05-02T01:59:13.124Z,102219.69
2023-05-02T02:01:40.925Z,102222.75
2023-05-02T02:04:10.145Z,102218.88
2023-05-02T02:06:37.371Z,102218.19
2023-05-02T02:09:04.216Z,102216.88
2023-05-02T02:11:37.611Z,102211.75
2023-05-02T02:14:12.711Z,102215.03
2023-05-02T02:16:41.864Z,102220.03
2023-05-02T02:19:12.978Z,102228.53
2023-05-02T02:21:41.202Z,102237.88
2023-05-02T02:24:08.966Z,102239.38
2023-05-02T02:26:37.294Z,102242.75
2023-05-02T02:29:04.457Z,102249.44
2023-05-02T02:31:33.081Z,102251.03
2023-05-02T02:34:03.216Z,102255.06
2023-05-02T02:36:33.876Z,102249.19
2023-05-02T02:39:12.450Z,102257.44
2023-05-02T02:41:58.987Z,102264.69
2023-05-02T02:44:32.293Z,102268.13
2023-05-02T02:47:24.008Z,102271.56
2023-05-02T02:50:09.794Z,102264.84
2023-05-02T02:52:58.853Z,102270.06
2023-05-02T02:55:40.481Z,102274.38
2023-05-02T02:58:21.667Z,102276.75
2023-05-02T03:00:49.956Z,102270.84
2023-05-02T03:03:17.883Z,102278.25
2023-05-02T03:05:47.117Z,102282.34
2023-05-02T03:08:13.795Z,102283.72
2023-05-02T03:10:40.490Z,102286.91
2023-05-02T03:13:07.115Z,102297.78
2023-05-02T03:15:54.168Z,102303.66
2023-05-02T03:18:20.904Z,102304.81
2023-05-02T03:20:47.549Z,102306.31
2023-05-02T03:23:14.188Z,102301.53
2023-05-02T03:25:40.756Z,102301.88
2023-05-02T03:28:07.407Z,102308.34
2023-05-02T03:30:34.063Z,102312.69
2023-05-02T03:33:01.704Z,102317.34
2023-05-02T03:35:28.313Z,102309.50
2023-05-02T03:37:55.045Z,102315.28
2023-05-02T03:40:22.066Z,102320.41
2023-05-02T03:42:48.735Z,102321.53
2023-05-02T03:45:16.402Z,102333.66
2023-05-02T03:47:42.922Z,102331.28
2023-05-02T03:50:10.048Z,102335.81
2023-05-02T03:52:36.594Z,102335.81
2023-05-02T03:55:04.130Z,102337.31
2023-05-02T03:57:30.915Z,102341.16
2023-05-02T03:59:57.764Z,102341.41
2023-05-02T04:02:25.465Z,102344.47
2023-05-02T04:04:52.128Z,102348.53
2023-05-02T04:07:19.593Z,102348.97
2023-05-02T04:09:46.675Z,102349.69
2023-05-02T04:12:16.281Z,102354.09
2023-05-02T04:14:42.860Z,102352.88
2023-05-02T04:17:09.608Z,102356.38
2023-05-02T04:19:36.300Z,102362.19
2023-05-02T04:22:03.709Z,102359.91
2023-05-02T04:24:30.322Z,102361.47
2023-05-02T04:26:56.848Z,102368.53
2023-05-02T04:29:23.421Z,102367.94
2023-05-02T04:31:51.209Z,102382.69
2023-05-02T04:34:17.789Z,102382.69
2023-05-02T04:36:46.953Z,102390.84
2023-05-02T04:39:16.695Z,102396.50
2023-05-02T04:41:43.539Z,102405.47
2023-05-02T04:44:10.076Z,102406.03
2023-05-02T04:46:37.814Z,102406.03
2023-05-02T04:49:04.432Z,102414.91
2023-05-02T04:51:33.610Z,102423.94
2023-05-02T04:54:00.707Z,102419.28
2023-05-02T04:56:27.404Z,102425.31
2023-05-02T04:59:00.151Z,102422.69
2023-05-02T05:01:32.694Z,102434.72
2023-05-02T05:03:59.468Z,102426.44
2023-05-02T05:06:26.502Z,102438.91
2023-05-02T05:08:53.103Z,102435.72
2023-05-02T05:11:19.651Z,102440.03
2023-05-02T05:13:46.330Z,102444.69
2023-05-02T05:16:13.306Z,102454.53
2023-05-02T05:18:41.127Z,102457.38
2023-05-02T05:21:08.402Z,102458.63
2023-05-02T05:23:35.927Z,102462.25
2023-05-02T05:26:10.107Z,102467.81
2023-05-02T05:31:19.249Z,102487.31
2023-05-02T05:33:47.255Z,102482.31
2023-05-02T05:36:15.657Z,102482.19
2023-05-02T05:38:43.350Z,102486.25
2023-05-02T05:41:11.394Z,102494.53
2023-05-02T05:43:40.084Z,102497.94
2023-05-02T05:46:06.737Z,102498.94
2023-05-02T05:48:33.535Z,102502.09
2023-05-02T05:51:07.626Z,102522.75
2023-05-02T05:53:34.366Z,102521.03
2023-05-02T05:56:09.097Z,102517.84
2023-05-02T05:58:35.722Z,102529.66
2023-05-02T06:01:04.376Z,102532.38
2023-05-02T06:03:31.113Z,102536.59
2023-05-02T06:05:57.862Z,102533.41
2023-05-02T06:08:25.454Z,102541.56
2023-05-02T06:10:51.937Z,102544.50
2023-05-02T06:13:18.441Z,102549.38
2023-05-02T06:15:45.040Z,102546.81
2023-05-02T06:18:11.726Z,102548.38
2023-05-02T06:20:38.318Z,102558.84
2023-05-02T06:23:04.812Z,102566.31
2023-05-02T06:25:32.920Z,102562.34
2023-05-02T06:27:59.615Z,102567.94
2023-05-02T06:30:27.010Z,102568.94
2023-05-02T06:32:53.493Z,102578.56
2023-05-02T06:35:20.064Z,102581.06
2023-05-02T06:37:46.631Z,102581.31
2023-05-02T06:40:13.790Z,102580.19
2023-05-02T06:42:41.317Z,102598.31
2023-05-02T06:45:09.380Z,102598.78
2023-05-02T06:47:35.899Z,102592.78
2023-05-02T06:50:02.933Z,102601.50
2023-05-02T06:52:29.724Z,102615.09
2023-05-02T06:54:56.437Z,102615.28
2023-05-02T06:57:23.302Z,102621.13
2023-05-02T06:59:49.852Z,102623.06
2023-05-02T07:02:16.482Z,102636.59
2023-05-02T07:04:42.976Z,102643.28
2023-05-02T07:07:09.561Z,102642.59
2023-05-02T07:09:38.237Z,102649.84
2023-05-02T07:12:06.925Z,102652.22
2023-05-02T07:14:33.760Z,102648.78
2023-05-02T07:17:00.498Z,102645.91
2023-05-02T07:19:27.067Z,102647.84
2023-05-02T07:21:53.558Z,102656.94
2023-05-02T07:24:20.086Z,102655.00
2023-05-02T07:26:46.710Z,102665.09
2023-05-02T07:29:13.355Z,102680.28
2023-05-02T07:31:39.918Z,102672.13
2023-05-02T07:34:06.732Z,102679.28
2023-05-02T07:36:33.242Z,102667.38
2023-05-02T07:38:59.804Z,102676.69
2023-05-02T07:41:26.462Z,102673.50
2023-05-02T07:43:52.932Z,102684.31
2023-05-02T07:46:19.616Z,102689.06
2023-05-02T07:48:46.243Z,102686.75
2023-05-02T07:51:13.295Z,102686.88
2023-05-02T07:53:39.807Z,102683.63
2023-05-02T07:56:08.431Z,102683.94
2023-05-02T07:58:37.184Z,102685.69
2023-05-02T08:01:05.364Z,102692.63
2023-05-02T08:03:32.105Z,102702.28
2023-05-02T08:05:58.943Z,102702.03
2023-05-02T08:08:25.482Z,102716.41
2023-05-02T08:10:52.028Z,102704.53
2023-05-02T08:13:18.623Z,102701.97
2023-05-02T08:15:45.756Z,102716.06
2023-05-02T08:18:12.330Z,102714.84
2023-05-02T08:20:38.923Z,102713.16
2023-05-02T08:23:05.612Z,102718.69
2023-05-02T08:25:32.281Z,102726.78
2023-05-02T08:27:58.764Z,102728.38
2023-05-02T08:30:25.518Z,102729.50
2023-05-02T08:32:52.107Z,102738.16
2023-05-02T08:35:20.025Z,102727.50
2023-05-02T08:37:46.574Z,102735.34
2023-05-02T08:40:15.011Z,102740.25
2023-05-02T08:42:44.891Z,102736.50
2023-05-02T08:45:14.194Z,102738.66
2023-05-02T08:47:43.037Z,102743.13
2023-05-02T08:50:11.215Z,102749.00
2023-05-02T08:52:38.896Z,102751.38
2023-05-02T08:55:07.382Z,102752.97
2023-05-02T08:57:34.065Z,102750.38
2023-05-02T09:00:00.933Z,102758.09
2023-05-02T09:02:55.601Z,102767.88
2023-05-02T09:05:25.144Z,102761.63
2023-05-02T09:07:53.274Z,102763.88
2023-05-02T09:10:21.762Z,102772.97
2023-05-02T09:12:49.521Z,102768.69
2023-05-02T09:15:20.555Z,102772.53
2023-05-02T09:17:49.574Z,102771.06
2023-05-02T09:20:16.933Z,102781.72
2023-05-02T09:22:50.614Z,102774.47
2023-05-02T09:25:17.998Z,102775.38
2023-05-02T09:27:56.404Z,102772.84
2023-05-02T09:30:25.925Z,102772.94
2023-05-02T09:32:55.822Z,102779.41
2023-05-02T09:35:23.977Z,102776.31
2023-05-02T09:37:55.606Z,102784.22
2023-05-02T09:40:23.261Z,102782.50
2023-05-02T09:42:50.346Z,102791.66
2023-05-02T09:45:21.894Z,102800.75
2023-05-02T09:47:49.407Z,102792.75
2023-05-02T09:50:38.103Z,102801.34
2023-05-02T09:53:07.245Z,102812.53
2023-05-02T09:55:35.478Z,102807.91
2023-05-02T09:58:02.095Z,102801.78
2023-05-02T10:00:42.962Z,102806.41
2023-05-02T10:03:09.982Z,102802.16
2023-05-02T10:05:38.828Z,102812.22
2023-05-02T10:08:07.872Z,102799.50
2023-05-02T10:10:38.166Z,102806.19
2023-05-02T10:13:06.240Z,102812.13
2023-05-02T10:15:34.706Z,102813.59
2023-05-02T10:18:08.453Z,102806.88
2023-05-02T10:20:37.409Z,102814.97
2023-05-02T10:23:06.229Z,102817.81
2023-05-02T10:25:34.404Z,102809.13
2023-05-02T10:28:01.205Z,102817.50
2023-05-02T10:30:29.091Z,102827.34
2023-05-02T10:33:00.827Z,102827.81
2023-05-02T10:35:28.514Z,102829.03
2023-05-02T10:37:56.268Z,102834.19
2023-05-02T10:40:23.196Z,102825.06
2023-05-02T10:42:55.490Z,102835.47
2023-05-02T10:45:32.329Z,102834.16
2023-05-02T10:48:19.724Z,102833.94
2023-05-02T10:50:49.116Z,102830.75
2023-05-02T10:53:23.574Z,102837.00
2023-05-02T10:56:21.607Z,102840.16
2023-05-02T10:58:50.418Z,102834.06
2023-05-02T11:01:34.157Z,102832.31
2023-05-02T11:04:01.580Z,102844.34
2023-05-02T11:06:30.121Z,102847.50
2023-05-02T11:09:25.340Z,102856.50
2023-05-02T11:11:53.627Z,102843.19
2023-05-02T11:14:26.067Z,102836.81
2023-05-02T11:17:03.795Z,102853.22
2023-05-02T11:19:56.164Z,102845.66
2023-05-02T11:22:31.533Z,102839.59
2023-05-02T11:24:58.515Z,102847.38
2023-05-02T11:27:29.480Z,102843.22
2023-05-02T11:29:57.737Z,102852.69
2023-05-02T11:32:27.334Z,102855.09
2023-05-02T11:34:55.663Z,102857.91
2023-05-02T11:37:22.272Z,102863.81
2023-05-02T11:39:49.029Z,102861.88
2023-05-02T11:42:32.429Z,102860.19
2023-05-02T11:45:01.357Z,102861.59
2023-05-02T11:47:29.603Z,102854.41
2023-05-02T11:49:58.585Z,102868.47
2023-05-02T11:52:25.526Z,102875.03
2023-05-02T11:54:56.849Z,102882.91
2023-05-02T11:57:24.795Z,102874.59
2023-05-02T11:59:53.868Z,102876.97
2023-05-02T12:02:35.928Z,102872.81
2023-05-02T12:05:06.378Z,102873.53
2023-05-02T12:07:38.263Z,102870.19
2023-05-02T12:10:06.506Z,102877.72
2023-05-02T12:12:33.447Z,102885.06
2023-05-02T12:15:05.851Z,102889.50
2023-05-02T12:17:35.675Z,102888.06
2023-05-02T12:20:05.103Z,102897.00
2023-05-02T12:22:32.000Z,102895.69
2023-05-02T12:24:59.443Z,102903.31
2023-05-02T12:27:26.311Z,102902.16
2023-05-02T12:29:53.643Z,102904.25
2023-05-02T12:32:29.852Z,102901.69
2023-05-02T12:37:41.552Z,102913.06
2023-05-02T12:44:05.651Z,102915.53
2023-05-02T12:46:36.466Z,102910.69
2023-05-02T12:49:12.684Z,102916.06
2023-05-02T12:51:42.672Z,102922.41
2023-05-02T12:56:56.886Z,102923.56
2023-05-02T13:02:41.391Z,102928.34
2023-05-02T13:05:15.713Z,102926.03
2023-05-02T13:07:42.387Z,102915.28
2023-05-02T13:10:13.533Z,102931.44
2023-05-02T13:12:40.160Z,102920.03
2023-05-02T13:18:26.673Z,102926.50
2023-05-02T13:21:02.708Z,102923.94
2023-05-02T13:29:06.917Z,102929.59
2023-05-02T13:34:43.151Z,102920.03
2023-05-02T13:46:09.332Z,102933.38
2023-05-02T13:48:37.361Z,102936.88
2023-05-02T13:51:04.184Z,102934.34
2023-05-02T13:53:30.882Z,102940.34
2023-05-02T13:55:57.605Z,102931.06
2023-05-02T13:58:24.171Z,102942.13
2023-05-02T14:00:50.808Z,102942.72
2023-05-02T14:06:11.451Z,102951.81
2023-05-02T14:08:38.341Z,102947.66
2023-05-02T14:11:07.053Z,102948.72
2023-05-02T14:13:34.115Z,102943.63
2023-05-02T14:16:00.878Z,102946.81
2023-05-02T14:18:27.856Z,102934.63
2023-05-02T14:20:55.510Z,102940.34
2023-05-02T14:23:22.201Z,102940.25
2023-05-02T14:25:49.013Z,102940.59
2023-05-02T14:28:15.650Z,102946.53
2023-05-02T14:30:42.258Z,102939.91
2023-05-02T14:33:08.867Z,102935.56
2023-05-02T14:35:39.379Z,102939.91
2023-05-02T14:38:08.310Z,102952.81
2023-05-02T14:40:34.886Z,102949.69
2023-05-02T14:43:01.809Z,102954.56
2023-05-02T14:45:28.502Z,102956.34
2023-05-02T14:47:55.930Z,102948.63
2023-05-02T14:50:22.519Z,102952.69
2023-05-02T14:52:49.179Z,102951.50
2023-05-02T14:55:16.172Z,102954.66
2023-05-02T14:57:43.755Z,102947.25
2023-05-02T15:00:11.249Z,102947.50
2023-05-02T15:02:38.048Z,102950.44
2023-05-02T15:05:11.894Z,102947.31
2023-05-02T15:07:39.206Z,102955.09
2023-05-02T15:10:06.659Z,102939.63
2023-05-02T15:12:34.288Z,102940.19
2023-05-02T15:15:01.006Z,102931.25
2023-05-02T15:17:27.713Z,102935.94
2023-05-02T15:19:55.852Z,102933.44
2023-05-02T15:22:26.846Z,102938.22
2023-05-02T15:24:53.447Z,102933.81
2023-05-02T15:27:19.958Z,102941.03
2023-05-02T15:29:46.488Z,102944.94
2023-05-02T15:32:13.194Z,102934.25
2023-05-02T15:34:39.804Z,102941.84
2023-05-02T15:37:07.476Z,102939.47
2023-05-02T15:39:34.043Z,102938.91
2023-05-02T15:42:04.660Z,102940.59
2023-05-02T15:44:36.038Z,102940.59
2023-05-02T15:47:02.755Z,102937.19
2023-05-02T15:49:32.919Z,102942.72
2023-05-02T15:52:00.586Z,102952.09
2023-05-02T15:54:27.617Z,102936.91
2023-05-02T15:56:54.354Z,102939.47
2023-05-02T15:59:23.281Z,102941.41
2023-05-02T16:01:49.947Z,102942.63
2023-05-02T16:04:16.713Z,102941.66
2023-05-02T16:06:43.509Z,102945.56
2023-05-02T16:09:10.686Z,102955.09
2023-05-02T16:11:37.930Z,102954.56
2023-05-02T16:14:04.459Z,102947.13
2023-05-02T16:16:31.135Z,102961.69
2023-05-02T16:18:57.748Z,102953.41
2023-05-02T16:21:24.261Z,102946.06
2023-05-02T16:23:51.337Z,102955.34
2023-05-02T16:26:19.039Z,102957.47
2023-05-02T16:28:45.719Z,102954.28
2023-05-02T16:31:15.610Z,102949.00
2023-05-02T16:33:42.913Z,102957.38
2023-05-02T16:36:10.958Z,102964.78
2023-05-02T16:38:37.431Z,102961.25
2023-05-02T16:41:07.913Z,102949.53
2023-05-02T16:43:34.934Z,102944.13
2023-05-02T16:46:03.271Z,102944.84
2023-05-02T16:48:29.912Z,102956.38
2023-05-02T16:50:57.168Z,102947.53
2023-05-02T16:53:24.137Z,102948.16
2023-05-02T16:55:50.997Z,102949.22
2023-05-02T16:58:17.582Z,102959.50
2023-05-02T17:00:44.272Z,102960.13
2023-05-02T17:03:11.066Z,102959.66
2023-05-02T17:05:37.721Z,102960.59
2023-05-02T17:08:05.385Z,102955.63
2023-05-02T17:10:31.954Z,102959.63
2023-05-02T17:12:59.157Z,102962.34
2023-05-02T17:15:26.008Z,102969.97
2023-05-02T17:17:52.710Z,102972.63
2023-05-02T17:20:20.549Z,102968.75
2023-05-02T17:22:47.406Z,102966.00
2023-05-02T17:25:14.121Z,102962.81
2023-05-02T17:27:41.338Z,102955.53
2023-05-02T17:30:08.609Z,102967.94
2023-05-02T17:32:37.662Z,102969.44
2023-05-02T17:35:04.651Z,102962.97
2023-05-02T17:37:32.287Z,102966.63
2023-05-02T17:40:01.092Z,102958.53
2023-05-02T17:42:27.853Z,102970.06
2023-05-02T17:44:54.420Z,102971.41
2023-05-02T17:47:22.147Z,102973.22
2023-05-02T17:55:19.657Z,102986.56
2023-05-02T17:57:46.784Z,102981.56
2023-05-02T18:02:59.041Z,102976.19
2023-05-02T18:05:28.160Z,102975.63
2023-05-02T18:07:55.863Z,102979.94
2023-05-02T18:12:58.072Z,102995.56
2023-05-02T18:15:25.696Z,102994.53
2023-05-02T18:17:52.526Z,102993.41
2023-05-02T18:20:20.217Z,102992.47
2023-05-02T18:22:46.902Z,102993.84
2023-05-02T18:25:13.593Z,102993.16
2023-05-02T18:27:41.367Z,102990.53
2023-05-02T18:30:08.903Z,102992.22
2023-05-02T18:32:35.950Z,102989.47
2023-05-02T18:35:04.203Z,102994.84
2023-05-02T18:37:31.807Z,102990.50
2023-05-02T18:39:58.818Z,102998.44
2023-05-02T18:42:25.673Z,102998.91
2023-05-02T18:44:52.826Z,102998.28
2023-05-02T18:47:20.092Z,102997.72
2023-05-02T18:49:46.740Z,103002.25
2023-05-02T18:52:14.588Z,103002.34
2023-05-02T18:54:41.195Z,102996.97
2023-05-02T18:57:08.936Z,102998.59
2023-05-02T18:59:37.618Z,102999.94
2023-05-02T19:02:04.329Z,102997.41
2023-05-02T19:04:31.866Z,103014.09
2023-05-02T19:06:58.585Z,103004.22
2023-05-02T19:09:25.099Z,103014.97
2023-05-02T19:11:51.855Z,103015.19
2023-05-02T19:14:18.885Z,103006.59
2023-05-02T19:16:46.923Z,103016.44
2023-05-02T19:19:14.373Z,103015.50
2023-05-02T19:21:41.625Z,103024.31
2023-05-02T19:24:08.240Z,103025.19
2023-05-02T19:26:34.871Z,103023.09
2023-05-02T19:29:01.449Z,103027.75
2023-05-02T19:31:28.031Z,103023.97
2023-05-02T19:33:54.961Z,103025.41
2023-05-02T19:36:23.387Z,103025.75
2023-05-02T19:38:54.066Z,103031.50
2023-05-02T19:41:22.261Z,103023.19
2023-05-02T19:43:54.718Z,103026.09
2023-05-02T19:46:21.550Z,103022.78
2023-05-02T19:48:48.354Z,103038.97
2023-05-02T19:51:14.913Z,103033.50
2023-05-02T19:53:41.410Z,103033.72
2023-05-02T19:56:08.376Z,103038.19
2023-05-02T19:58:35.104Z,103034.34
2023-05-02T20:01:01.913Z,103033.06
2023-05-02T20:03:31.046Z,103033.88
2023-05-02T20:05:59.252Z,103039.31
2023-05-02T20:08:27.929Z,103036.47
2023-05-02T20:10:56.099Z,103052.63
2023-05-02T20:13:22.700Z,103052.66
2023-05-02T20:15:50.822Z,103060.69
2023-05-02T20:18:17.695Z,103057.47
2023-05-02T20:20:44.251Z,103056.22
2023-05-02T20:23:10.784Z,103056.34
2023-05-02T20:25:39.750Z,103054.97
2023-05-02T20:28:07.111Z,103055.94
2023-05-02T20:30:33.906Z,103058.47
2023-05-02T20:33:10.532Z,103063.44
2023-05-02T20:35:41.983Z,103066.78
2023-05-02T20:38:08.511Z,103067.41
2023-05-02T20:40:39.562Z,103069.34
2023-05-02T20:43:06.731Z,103075.75
2023-05-02T20:45:33.467Z,103072.22
2023-05-02T20:48:00.227Z,103077.81
2023-05-02T20:50:27.198Z,103084.22
2023-05-02T20:52:54.339Z,103081.84
2023-05-02T20:55:22.738Z,103079.41
2023-05-02T20:57:53.380Z,103080.88
2023-05-02T21:00:22.484Z,103088.53
2023-05-02T21:02:49.600Z,103080.22
2023-05-02T21:05:16.418Z,103079.59
2023-05-02T21:07:43.091Z,103083.25
2023-05-02T21:10:10.795Z,103082.47
2023-05-02T21:12:37.367Z,103081.66
2023-05-02T21:15:05.498Z,103081.03
2023-05-02T21:17:32.111Z,103077.81
2023-05-02T21:19:58.734Z,103085.19
2023-05-02T21:22:25.315Z,103081.34
2023-05-02T21:24:54.114Z,103083.06
2023-05-02T21:27:20.710Z,103079.09
2023-05-02T21:29:47.381Z,103082.44
2023-05-02T21:32:14.304Z,103078.75
2023-05-02T21:34:41.042Z,103075.88
2023-05-02T21:37:07.540Z,103079.88
2023-05-02T21:39:34.080Z,103083.22
2023-05-02T21:42:02.562Z,103070.75
2023-05-02T21:44:29.038Z,103070.25
2023-05-02T21:46:55.996Z,103071.69
2023-05-02T21:49:22.567Z,103078.72
2023-05-02T21:51:49.216Z,103078.22
2023-05-02T21:54:15.808Z,103076.78
2023-05-02T21:56:43.037Z,103085.75
2023-05-02T21:59:09.522Z,103080.94
2023-05-02T22:01:36.123Z,103081.09
2023-05-02T22:04:02.800Z,103079.00
2023-05-02T22:06:29.519Z,103073.25
2023-05-02T22:08:56.117Z,103065.44
2023-05-02T22:11:24.287Z,103069.09
2023-05-02T22:13:50.963Z,103059.16
2023-05-02T22:16:17.683Z,103063.66
2023-05-02T22:18:44.723Z,103058.81
2023-05-02T22:21:12.209Z,103056.25
2023-05-02T22:23:39.004Z,103056.06
2023-05-02T22:26:05.578Z,103054.50
2023-05-02T22:28:32.147Z,103049.66
2023-05-02T22:31:00.741Z,103059.25
2023-05-02T22:33:27.469Z,103063.38
2023-05-02T22:35:54.221Z,103062.41
2023-05-02T22:38:20.752Z,103062.25
2023-05-02T22:40:47.341Z,103056.63
2023-05-02T22:43:13.880Z,103048.00
2023-05-02T22:45:40.690Z,103051.34
2023-05-02T22:48:08.022Z,103053.72
2023-05-02T22:50:34.707Z,103055.63
2023-05-02T22:53:03.763Z,103062.16
2023-05-02T22:55:30.564Z,103060.88
2023-05-02T22:57:57.959Z,103065.81
2023-05-02T23:00:24.938Z,103061.00
2023-05-02T23:02:51.673Z,103062.75
2023-05-02T23:05:18.714Z,103064.47
2023-05-02T23:07:45.352Z,103064.28
2023-05-02T23:10:11.969Z,103062.69
2023-05-02T23:12:38.873Z,103070.94
2023-05-02T23:15:06.454Z,103065.91
2023-05-02T23:17:33.008Z,103077.22
2023-05-02T23:19:59.583Z,103077.03
2023-05-02T23:22:26.127Z,103073.50
2023-05-02T23:24:53.817Z,103074.59
2023-05-02T23:27:20.312Z,103071.91
2023-05-02T23:29:50.292Z,103064.19
2023-05-02T23:32:17.340Z,103057.19
2023-05-02T23:34:44.346Z,103069.63
2023-05-02T23:37:12.780Z,103071.66
2023-05-02T23:39:39.241Z,103088.72
2023-05-02T23:42:06.275Z,103091.44
2023-05-02T23:44:32.853Z,103087.91
2023-05-02T23:46:59.869Z,103090.63
2023-05-02T23:49:26.802Z,103097.13
2023-05-02T23:51:53.408Z,103100.28
2023-05-02T23:54:20.248Z,103101.69
2023-05-02T23:56:47.034Z,103102.00
2023-05-02T23:59:13.566Z,103099.59
